createdAt,value
2018-12-15T00:01:09.766Z,-1.60
2018-12-15T00:03:37.862Z,-1.60
2018-12-15T00:06:05.751Z,-1.60
2018-12-15T00:08:33.294Z,-1.70
2018-12-15T00:11:00.901Z,-1.80
2018-12-15T00:13:28.452Z,-1.70
2018-12-15T00:15:55.994Z,-1.60
2018-12-15T00:18:23.617Z,-1.60
2018-12-15T00:20:51.391Z,-1.60
2018-12-15T00:23:18.940Z,-1.60
2018-12-15T00:25:46.551Z,-1.60
2018-12-15T00:28:14.090Z,-1.60
2018-12-15T00:30:41.950Z,-1.60
2018-12-15T00:33:09.994Z,-1.60
2018-12-15T00:35:37.550Z,-1.60
2018-12-15T00:38:05.095Z,-1.60
2018-12-15T00:40:33.044Z,-1.60
2018-12-15T00:43:00.612Z,-1.60
2018-12-15T00:45:28.165Z,-1.60
2018-12-15T00:47:55.755Z,-1.50
2018-12-15T00:50:23.310Z,-1.50
2018-12-15T00:52:50.849Z,-1.50
2018-12-15T00:55:18.738Z,-1.50
2018-12-15T00:57:46.290Z,-1.60
2018-12-15T01:00:15.840Z,-1.60
2018-12-15T01:02:43.665Z,-1.60
2018-12-15T01:05:11.215Z,-1.50
2018-12-15T01:07:38.755Z,-1.50
2018-12-15T01:10:06.538Z,-1.50
2018-12-15T01:12:34.432Z,-1.60
2018-12-15T01:15:02.138Z,-1.50
2018-12-15T01:17:29.966Z,-1.50
2018-12-15T01:19:57.795Z,-1.50
2018-12-15T01:22:25.484Z,-1.50
2018-12-15T01:24:53.199Z,-1.50
2018-12-15T01:27:20.737Z,-1.50
2018-12-15T01:29:48.288Z,-1.50
2018-12-15T01:32:16.194Z,-1.50
2018-12-15T01:34:43.750Z,-1.50
2018-12-15T01:37:11.425Z,-1.50
2018-12-15T01:39:39.020Z,-1.50
2018-12-15T01:42:06.591Z,-1.50
2018-12-15T01:44:34.292Z,-1.50
2018-12-15T01:47:02.106Z,-1.50
2018-12-15T01:49:29.643Z,-1.50
2018-12-15T01:51:57.390Z,-1.50
2018-12-15T01:54:24.977Z,-1.50
2018-12-15T01:56:52.702Z,-1.40
2018-12-15T01:59:20.240Z,-1.40
2018-12-15T02:01:47.820Z,-1.40
2018-12-15T02:04:15.364Z,-1.50
2018-12-15T02:06:42.997Z,-1.50
2018-12-15T02:09:10.576Z,-1.50
2018-12-15T02:11:38.116Z,-1.50
2018-12-15T02:14:05.653Z,-1.50
2018-12-15T02:16:33.642Z,-1.50
2018-12-15T02:19:01.187Z,-1.50
2018-12-15T02:21:28.726Z,-1.50
2018-12-15T02:23:56.355Z,-1.50
2018-12-15T02:26:24.022Z,-1.50
2018-12-15T02:28:51.554Z,-1.50
2018-12-15T02:31:19.389Z,-1.50
2018-12-15T02:33:47.203Z,-1.50
2018-12-15T02:36:14.873Z,-1.50
2018-12-15T02:38:43.007Z,-1.50
2018-12-15T02:41:10.552Z,-1.50
2018-12-15T02:43:38.110Z,-1.50
2018-12-15T02:46:05.683Z,-1.50
2018-12-15T02:48:33.217Z,-1.50
2018-12-15T02:51:00.756Z,-1.50
2018-12-15T02:53:28.928Z,-1.50
2018-12-15T02:55:56.469Z,-1.50
2018-12-15T02:58:24.275Z,-1.50
2018-12-15T03:00:51.981Z,-1.50
2018-12-15T03:03:19.596Z,-1.50
2018-12-15T03:05:47.134Z,-1.50
2018-12-15T03:08:14.727Z,-1.50
2018-12-15T03:10:42.262Z,-1.50
2018-12-15T03:13:09.794Z,-1.50
2018-12-15T03:15:37.702Z,-1.40
2018-12-15T03:18:05.238Z,-1.50
2018-12-15T03:20:32.786Z,-1.50
2018-12-15T03:23:00.622Z,-1.50
2018-12-15T03:25:28.158Z,-1.50
2018-12-15T03:27:55.700Z,-1.40
2018-12-15T03:30:23.290Z,-1.50
2018-12-15T03:32:51.088Z,-1.40
2018-12-15T03:35:18.809Z,-1.50
2018-12-15T03:37:46.588Z,-1.50
2018-12-15T03:40:14.121Z,-1.40
2018-12-15T03:42:41.662Z,-1.50
2018-12-15T03:45:09.439Z,-1.50
2018-12-15T03:47:36.982Z,-1.50
2018-12-15T03:50:06.030Z,-1.50
2018-12-15T03:52:34.053Z,-1.50
2018-12-15T03:55:01.590Z,-1.50
2018-12-15T03:57:29.130Z,-1.50
2018-12-15T03:59:56.857Z,-1.60
2018-12-15T04:02:24.573Z,-1.60
2018-12-15T04:04:52.474Z,-1.50
2018-12-15T04:07:20.213Z,-1.50
2018-12-15T04:09:48.046Z,-1.50
2018-12-15T04:12:15.752Z,-1.60
2018-12-15T04:14:43.548Z,-1.50
2018-12-15T04:17:11.100Z,-1.60
2018-12-15T04:19:38.639Z,-1.60
2018-12-15T04:22:19.378Z,-1.60
2018-12-15T04:24:47.039Z,-1.60
2018-12-15T04:27:14.574Z,-1.60
2018-12-15T04:29:42.153Z,-1.60
2018-12-15T04:32:09.861Z,-1.60
2018-12-15T04:34:37.404Z,-1.70
2018-12-15T04:37:05.053Z,-1.70
2018-12-15T04:39:32.699Z,-1.70
2018-12-15T04:42:00.227Z,-1.70
2018-12-15T04:44:27.878Z,-1.70
2018-12-15T04:46:55.984Z,-1.80
2018-12-15T04:49:23.522Z,-1.80
2018-12-15T04:51:51.246Z,-1.80
2018-12-15T04:54:19.042Z,-1.80
2018-12-15T04:56:46.886Z,-1.80
2018-12-15T04:59:14.462Z,-1.80
2018-12-15T05:01:41.998Z,-1.80
2018-12-15T05:04:09.538Z,-1.90
2018-12-15T05:06:37.183Z,-1.90
2018-12-15T05:09:05.327Z,-1.90
2018-12-15T05:11:32.923Z,-1.90
2018-12-15T05:14:00.521Z,-1.90
2018-12-15T05:16:28.124Z,-1.90
2018-12-15T05:18:55.879Z,-1.90
2018-12-15T05:21:23.541Z,-1.90
2018-12-15T05:23:51.074Z,-1.90
2018-12-15T05:26:18.629Z,-1.80
2018-12-15T05:28:46.755Z,-1.90
2018-12-15T05:31:14.381Z,-1.90
2018-12-15T05:33:42.121Z,-1.90
2018-12-15T05:36:09.936Z,-1.90
2018-12-15T05:38:37.742Z,-1.90
2018-12-15T05:41:05.286Z,-1.90
2018-12-15T05:43:33.086Z,-1.90
2018-12-15T05:46:00.629Z,-1.90
2018-12-15T05:48:28.218Z,-1.90
2018-12-15T05:50:55.850Z,-1.90
2018-12-15T05:53:23.390Z,-1.90
2018-12-15T05:55:50.943Z,-1.90
2018-12-15T05:58:18.517Z,-1.90
2018-12-15T06:00:46.081Z,-1.90
2018-12-15T06:03:13.615Z,-1.90
2018-12-15T06:05:41.446Z,-1.90
2018-12-15T06:08:08.981Z,-1.90
2018-12-15T06:10:36.558Z,-1.90
2018-12-15T06:13:04.179Z,-2.00
2018-12-15T06:15:31.718Z,-1.90
2018-12-15T06:17:59.411Z,-1.90
2018-12-15T06:20:26.995Z,-1.90
2018-12-15T06:22:54.534Z,-2.00
2018-12-15T06:25:22.253Z,-2.00
2018-12-15T06:27:49.834Z,-2.00
2018-12-15T06:30:17.579Z,-1.90
2018-12-15T06:32:45.113Z,-2.00
2018-12-15T06:35:12.960Z,-2.00
2018-12-15T06:37:40.503Z,-2.00
2018-12-15T06:40:08.244Z,-1.90
2018-12-15T06:42:35.826Z,-1.90
2018-12-15T06:45:03.947Z,-1.90
2018-12-15T06:47:31.555Z,-1.90
2018-12-15T06:49:59.251Z,-2.00
2018-12-15T06:52:26.791Z,-1.90
2018-12-15T06:54:54.329Z,-1.90
2018-12-15T06:57:22.167Z,-2.00
2018-12-15T06:59:49.763Z,-2.00
2018-12-15T07:02:17.319Z,-2.00
2018-12-15T07:04:44.934Z,-2.00
2018-12-15T07:07:12.493Z,-2.00
2018-12-15T07:09:40.034Z,-2.00
2018-12-15T07:12:08.095Z,-2.00
2018-12-15T07:14:35.638Z,-2.00
2018-12-15T07:17:03.183Z,-2.10
2018-12-15T07:19:30.859Z,-2.00
2018-12-15T07:21:58.394Z,-2.00
2018-12-15T07:24:26.167Z,-2.10
2018-12-15T07:26:53.754Z,-2.10
2018-12-15T07:29:21.290Z,-2.00
2018-12-15T07:31:48.859Z,-2.00
2018-12-15T07:34:16.978Z,-2.00
2018-12-15T07:36:44.528Z,-2.00
2018-12-15T07:39:12.134Z,-2.10
2018-12-15T07:41:40.658Z,-2.10
2018-12-15T07:44:08.234Z,-2.10
2018-12-15T07:46:35.795Z,-2.10
2018-12-15T07:49:03.966Z,-2.10
2018-12-15T07:51:31.655Z,-2.10
2018-12-15T07:53:59.196Z,-2.10
2018-12-15T07:56:27.252Z,-2.00
2018-12-15T07:58:54.790Z,-2.00
2018-12-15T08:01:22.336Z,-2.10
2018-12-15T08:03:49.910Z,-2.00
2018-12-15T08:06:17.535Z,-2.00
2018-12-15T08:08:45.130Z,-1.90
2018-12-15T08:11:18.364Z,-2.00
2018-12-15T08:13:47.628Z,-2.00
2018-12-15T08:16:15.396Z,-2.00
2018-12-15T08:18:44.006Z,-1.90
2018-12-15T08:21:11.887Z,-2.00
2018-12-15T08:23:40.197Z,-2.10
2018-12-15T08:26:08.292Z,-2.00
2018-12-15T08:28:36.053Z,-2.10
2018-12-15T08:31:03.594Z,-2.00
2018-12-15T08:33:31.183Z,-2.10
2018-12-15T08:35:58.921Z,-2.00
2018-12-15T08:38:26.806Z,-2.10
2018-12-15T08:40:54.670Z,-2.10
2018-12-15T08:43:22.383Z,-2.00
2018-12-15T08:45:50.094Z,-2.00
2018-12-15T08:48:17.978Z,-2.10
2018-12-15T08:50:45.872Z,-2.10
2018-12-15T08:53:13.410Z,-2.00
2018-12-15T08:55:40.998Z,-2.10
2018-12-15T08:58:08.703Z,-2.20
2018-12-15T09:00:36.260Z,-2.10
2018-12-15T09:03:04.227Z,-2.10
2018-12-15T09:05:32.092Z,-2.10
2018-12-15T09:08:00.060Z,-2.00
2018-12-15T09:10:27.852Z,-2.00
2018-12-15T09:12:55.461Z,-2.10
2018-12-15T09:15:23.001Z,-2.10
2018-12-15T09:17:50.589Z,-2.00
2018-12-15T09:20:18.445Z,-2.00
2018-12-15T09:22:46.029Z,-2.00
2018-12-15T09:25:13.626Z,-2.10
2018-12-15T09:27:41.169Z,-2.00
2018-12-15T09:30:08.731Z,-2.00
2018-12-15T09:32:36.331Z,-2.00
2018-12-15T09:35:03.971Z,-2.00
2018-12-15T09:37:31.655Z,-2.10
2018-12-15T09:39:59.243Z,-2.00
2018-12-15T09:42:26.783Z,-1.90
2018-12-15T09:44:54.765Z,-1.90
2018-12-15T09:47:22.748Z,-1.90
2018-12-15T09:49:50.304Z,-1.90
2018-12-15T09:52:18.054Z,-2.00
2018-12-15T09:54:45.799Z,-2.00
2018-12-15T09:57:13.346Z,-2.00
2018-12-15T09:59:40.906Z,-2.00
2018-12-15T10:02:09.312Z,-1.90
2018-12-15T10:04:36.886Z,-1.90
2018-12-15T10:07:04.499Z,-2.00
2018-12-15T10:09:32.125Z,-2.00
2018-12-15T10:11:59.671Z,-1.90
2018-12-15T10:14:27.216Z,-2.00
2018-12-15T10:16:54.805Z,-2.00
2018-12-15T10:19:24.486Z,-1.90
2018-12-15T10:21:52.236Z,-2.00
2018-12-15T10:24:20.097Z,-2.00
2018-12-15T10:26:47.856Z,-1.90
2018-12-15T10:29:21.273Z,-1.90
2018-12-15T10:31:54.803Z,-1.90
2018-12-15T10:34:22.591Z,-1.90
2018-12-15T10:36:50.151Z,-1.90
2018-12-15T10:39:17.695Z,-1.90
2018-12-15T10:41:45.493Z,-1.90
2018-12-15T10:44:13.463Z,-1.90
2018-12-15T10:46:41.309Z,-1.80
2018-12-15T10:49:08.895Z,-1.90
2018-12-15T10:51:36.634Z,-2.00
2018-12-15T10:54:04.178Z,-2.00
2018-12-15T10:56:32.024Z,-1.90
2018-12-15T10:58:59.660Z,-1.90
2018-12-15T11:01:29.751Z,-1.90
2018-12-15T11:04:00.751Z,-1.90
2018-12-15T11:06:28.186Z,-1.90
2018-12-15T11:08:55.899Z,-1.90
2018-12-15T11:11:23.501Z,-1.80
2018-12-15T11:13:51.743Z,-1.80
2018-12-15T11:16:19.314Z,-1.70
2018-12-15T11:18:47.270Z,-1.70
2018-12-15T11:21:15.694Z,-1.70
2018-12-15T11:23:43.816Z,-1.80
2018-12-15T11:26:11.476Z,-1.80
2018-12-15T11:28:39.055Z,-1.90
2018-12-15T11:31:06.708Z,-1.90
2018-12-15T11:33:34.356Z,-2.00
2018-12-15T11:36:01.923Z,-2.00
2018-12-15T11:38:29.982Z,-1.90
2018-12-15T11:40:58.462Z,-1.90
2018-12-15T11:43:26.232Z,-1.90
2018-12-15T11:45:53.788Z,-1.80
2018-12-15T11:48:21.835Z,-1.80
2018-12-15T11:50:49.378Z,-1.90
2018-12-15T11:53:16.999Z,-1.90
2018-12-15T11:55:45.044Z,-1.90
2018-12-15T11:58:12.602Z,-1.90
2018-12-15T12:00:40.268Z,-1.90
2018-12-15T12:03:08.098Z,-1.80
2018-12-15T12:05:35.682Z,-1.80
2018-12-15T12:08:03.453Z,-1.80
2018-12-15T12:10:31.065Z,-1.90
2018-12-15T12:12:58.637Z,-1.90
2018-12-15T12:15:26.433Z,-1.90
2018-12-15T12:17:54.190Z,-2.00
2018-12-15T12:20:22.220Z,-2.00
2018-12-15T12:22:49.819Z,-1.90
2018-12-15T12:25:18.202Z,-1.90
2018-12-15T12:27:46.123Z,-1.90
2018-12-15T12:30:13.926Z,-1.90
2018-12-15T12:32:41.688Z,-1.90
2018-12-15T12:35:09.403Z,-1.90
2018-12-15T12:37:37.320Z,-1.90
2018-12-15T12:40:06.080Z,-1.80
2018-12-15T12:42:34.277Z,-1.80
2018-12-15T12:45:02.044Z,-1.90
2018-12-15T12:47:29.642Z,-1.90
2018-12-15T12:49:57.434Z,-1.90
2018-12-15T12:52:25.166Z,-1.80
2018-12-15T12:54:52.806Z,-1.90
2018-12-15T12:57:20.450Z,-2.00
2018-12-15T12:59:48.002Z,-1.90
2018-12-15T13:02:15.596Z,-2.00
2018-12-15T13:04:43.159Z,-2.10
2018-12-15T13:07:10.702Z,-2.00
2018-12-15T13:09:38.274Z,-2.00
2018-12-15T13:12:05.818Z,-2.00
2018-12-15T13:14:33.660Z,-2.00
2018-12-15T13:17:01.638Z,-2.00
2018-12-15T13:19:29.243Z,-2.00
2018-12-15T13:21:56.786Z,-1.90
2018-12-15T13:24:24.355Z,-1.90
2018-12-15T13:26:51.915Z,-2.00
2018-12-15T13:29:19.828Z,-2.00
2018-12-15T13:31:47.848Z,-2.00
2018-12-15T13:34:15.608Z,-2.00
2018-12-15T13:36:43.153Z,-2.00
2018-12-15T13:39:11.011Z,-2.00
2018-12-15T13:41:39.148Z,-2.00
2018-12-15T13:44:06.697Z,-2.00
2018-12-15T13:46:34.283Z,-2.00
2018-12-15T13:49:01.817Z,-2.00
2018-12-15T13:51:29.782Z,-2.00
2018-12-15T13:53:57.559Z,-2.00
2018-12-15T13:56:25.296Z,-2.00
2018-12-15T13:58:52.838Z,-2.00
2018-12-15T14:01:20.484Z,-2.10
2018-12-15T14:03:48.027Z,-2.00
2018-12-15T14:06:15.841Z,-2.00
2018-12-15T14:08:43.561Z,-2.10
2018-12-15T14:11:11.463Z,-2.10
2018-12-15T14:13:39.017Z,-2.10
2018-12-15T14:16:06.608Z,-2.10
2018-12-15T14:18:34.293Z,-2.10
2018-12-15T14:21:02.070Z,-2.20
2018-12-15T14:23:29.662Z,-2.10
2018-12-15T14:25:57.355Z,-2.10
2018-12-15T14:28:25.834Z,-2.10
2018-12-15T14:30:53.827Z,-2.10
2018-12-15T14:33:21.492Z,-2.10
2018-12-15T14:35:49.298Z,-2.10
2018-12-15T14:38:17.084Z,-2.10
2018-12-15T14:40:44.633Z,-2.10
2018-12-15T14:43:12.176Z,-2.10
2018-12-15T14:45:39.749Z,-2.10
2018-12-15T14:48:07.414Z,-2.10
2018-12-15T14:50:34.965Z,-2.20
2018-12-15T14:53:03.003Z,-2.10
2018-12-15T14:55:30.580Z,-2.20
2018-12-15T14:57:58.135Z,-2.10
2018-12-15T15:00:26.542Z,-2.20
2018-12-15T15:02:54.848Z,-2.20
2018-12-15T15:05:22.536Z,-2.20
2018-12-15T15:07:50.918Z,-2.20
2018-12-15T15:10:19.562Z,-2.20
2018-12-15T15:12:47.274Z,-2.10
2018-12-15T15:15:15.178Z,-2.10
2018-12-15T15:17:42.915Z,-2.20
2018-12-15T15:20:11.112Z,-2.10
2018-12-15T15:22:38.737Z,-2.10
2018-12-15T15:25:06.860Z,-2.20
2018-12-15T15:27:34.850Z,-2.20
2018-12-15T15:30:02.812Z,-2.20
2018-12-15T15:32:31.049Z,-2.20
2018-12-15T15:34:58.601Z,-2.20
2018-12-15T15:37:26.178Z,-2.20
2018-12-15T15:39:53.775Z,-2.20
2018-12-15T15:42:21.392Z,-2.20
2018-12-15T15:44:49.255Z,-2.20
2018-12-15T15:47:17.621Z,-2.20
2018-12-15T15:49:46.001Z,-2.20
2018-12-15T15:52:13.826Z,-2.20
2018-12-15T15:54:41.631Z,-2.20
2018-12-15T15:57:09.182Z,-2.20
2018-12-15T15:59:37.165Z,-2.20
2018-12-15T16:02:05.431Z,-2.20
2018-12-15T16:04:33.126Z,-2.20
2018-12-15T16:07:00.713Z,-2.20
2018-12-15T16:09:28.447Z,-2.10
2018-12-15T16:11:55.996Z,-2.20
2018-12-15T16:14:23.936Z,-2.20
2018-12-15T16:16:51.493Z,-2.20
2018-12-15T16:19:19.258Z,-2.20
2018-12-15T16:21:47.124Z,-2.20
2018-12-15T16:24:14.989Z,-2.20
2018-12-15T16:26:42.884Z,-2.20
2018-12-15T16:29:10.735Z,-2.20
2018-12-15T16:31:38.677Z,-2.20
2018-12-15T16:34:06.524Z,-2.30
2018-12-15T16:36:34.121Z,-2.30
2018-12-15T16:39:02.186Z,-2.30
2018-12-15T16:41:29.788Z,-2.30
2018-12-15T16:43:57.392Z,-2.30
2018-12-15T16:46:25.984Z,-2.30
2018-12-15T16:48:53.840Z,-2.30
2018-12-15T16:51:21.919Z,-2.30
2018-12-15T16:53:49.599Z,-2.30
2018-12-15T16:56:17.851Z,-2.30
2018-12-15T16:58:45.730Z,-2.30
2018-12-15T17:01:13.368Z,-2.30
2018-12-15T17:03:41.999Z,-2.40
2018-12-15T17:06:09.594Z,-2.40
2018-12-15T17:08:37.688Z,-2.30
2018-12-15T17:11:05.246Z,-2.40
2018-12-15T17:13:32.914Z,-2.40
2018-12-15T17:16:00.496Z,-2.40
2018-12-15T17:18:28.058Z,-2.50
2018-12-15T17:20:56.737Z,-2.40
2018-12-15T17:23:24.657Z,-2.40
2018-12-15T17:25:52.206Z,-2.40
2018-12-15T17:28:20.432Z,-2.40
2018-12-15T17:30:48.271Z,-2.40
2018-12-15T17:33:16.855Z,-2.40
2018-12-15T17:35:44.834Z,-2.40
2018-12-15T17:38:12.494Z,-2.40
2018-12-15T17:40:40.094Z,-2.40
2018-12-15T17:43:08.317Z,-2.40
2018-12-15T17:45:36.792Z,-2.40
2018-12-15T17:48:04.678Z,-2.40
2018-12-15T17:50:32.766Z,-2.40
2018-12-15T17:53:01.005Z,-2.00
2018-12-15T17:55:28.960Z,-2.20
2018-12-15T17:57:57.071Z,-2.30
2018-12-15T18:00:24.631Z,-2.40
2018-12-15T18:02:52.190Z,-2.40
2018-12-15T18:05:19.803Z,-2.40
2018-12-15T18:07:47.584Z,-2.50
2018-12-15T18:10:15.160Z,-2.50
2018-12-15T18:12:43.217Z,-2.50
2018-12-15T18:15:10.879Z,-2.50
2018-12-15T18:17:40.201Z,-2.50
2018-12-15T18:20:08.757Z,-2.50
2018-12-15T18:22:36.357Z,-2.60
2018-12-15T18:25:04.424Z,-2.60
2018-12-15T18:27:32.350Z,-2.60
2018-12-15T18:30:00.624Z,-2.60
2018-12-15T18:32:28.926Z,-2.60
2018-12-15T18:34:56.908Z,-2.60
2018-12-15T18:37:24.471Z,-2.60
2018-12-15T18:39:52.023Z,-2.60
2018-12-15T18:42:19.747Z,-2.60
2018-12-15T18:44:47.612Z,-2.60
2018-12-15T18:47:15.260Z,-2.60
2018-12-15T18:49:43.351Z,-2.70
2018-12-15T18:52:10.918Z,-2.70
2018-12-15T18:54:38.673Z,-2.60
2018-12-15T18:57:07.148Z,-2.70
2018-12-15T18:59:35.733Z,-2.70
2018-12-15T19:02:03.432Z,-2.70
2018-12-15T19:04:31.050Z,-2.60
2018-12-15T19:06:58.809Z,-2.70
2018-12-15T19:09:26.398Z,-2.60
2018-12-15T19:11:54.542Z,-2.60
2018-12-15T19:14:22.132Z,-2.60
2018-12-15T19:16:49.701Z,-2.70
2018-12-15T19:19:17.728Z,-2.60
2018-12-15T19:21:45.595Z,-2.70
2018-12-15T19:24:13.540Z,-2.60
2018-12-15T19:26:41.169Z,-2.60
2018-12-15T19:29:08.724Z,-2.60
2018-12-15T19:31:36.266Z,-2.60
2018-12-15T19:34:04.124Z,-2.60
2018-12-15T19:36:31.750Z,-2.60
2018-12-15T19:38:59.515Z,-2.60
2018-12-15T19:41:27.680Z,-2.60
2018-12-15T19:43:55.782Z,-2.70
2018-12-15T19:46:23.826Z,-2.70
2018-12-15T19:48:51.701Z,-2.70
2018-12-15T19:51:19.263Z,-2.60
2018-12-15T19:53:47.655Z,-2.60
2018-12-15T19:56:15.475Z,-2.60
2018-12-15T19:58:43.043Z,-2.60
2018-12-15T20:01:10.651Z,-2.60
2018-12-15T20:03:38.231Z,-2.60
2018-12-15T20:06:05.810Z,-2.60
2018-12-15T20:08:33.370Z,-2.60
2018-12-15T20:11:01.032Z,-2.60
2018-12-15T20:13:28.679Z,-2.60
2018-12-15T20:15:56.240Z,-2.60
2018-12-15T20:18:24.176Z,-2.60
2018-12-15T20:20:51.747Z,-2.70
2018-12-15T20:23:19.863Z,-2.60
2018-12-15T20:25:47.636Z,-2.60
2018-12-15T20:28:15.192Z,-2.60
2018-12-15T20:30:42.753Z,-2.60
2018-12-15T20:33:11.438Z,-2.60
2018-12-15T20:35:39.016Z,-2.60
2018-12-15T20:38:06.671Z,-2.70
2018-12-15T20:40:34.269Z,-2.60
2018-12-15T20:43:02.104Z,-2.60
2018-12-15T20:45:30.280Z,-2.60
2018-12-15T20:47:57.855Z,-2.70
2018-12-15T20:50:26.417Z,-2.60
2018-12-15T20:52:54.865Z,-2.60
2018-12-15T20:55:22.467Z,-2.60
2018-12-15T20:57:50.692Z,-2.60
2018-12-15T21:00:18.439Z,-2.60
2018-12-15T21:02:46.640Z,-2.60
2018-12-15T21:05:14.186Z,-2.60
2018-12-15T21:07:41.841Z,-2.60
2018-12-15T21:10:09.444Z,-2.60
2018-12-15T21:12:37.282Z,-2.70
2018-12-15T21:15:07.163Z,-2.70
2018-12-15T21:17:34.959Z,-2.70
2018-12-15T21:20:03.040Z,-2.60
2018-12-15T21:22:30.706Z,-2.70
2018-12-15T21:24:58.319Z,-2.70
2018-12-15T21:27:25.868Z,-2.70
2018-12-15T21:29:53.527Z,-2.70
2018-12-15T21:32:21.434Z,-2.70
2018-12-15T21:34:49.298Z,-2.70
2018-12-15T21:37:16.959Z,-2.70
2018-12-15T21:39:45.345Z,-2.60
2018-12-15T21:42:12.906Z,-2.60
2018-12-15T21:44:40.760Z,-2.60
2018-12-15T21:47:09.049Z,-2.60
2018-12-15T21:49:36.639Z,-2.70
2018-12-15T21:52:04.186Z,-2.60
2018-12-15T21:54:31.970Z,-2.60
2018-12-15T21:56:59.721Z,-2.60
2018-12-15T21:59:27.315Z,-2.60
2018-12-15T22:01:54.911Z,-2.60
2018-12-15T22:04:22.946Z,-2.60
2018-12-15T22:06:50.949Z,-2.60
2018-12-15T22:09:18.850Z,-2.60
2018-12-15T22:11:47.015Z,-2.60
2018-12-15T22:14:15.045Z,-2.70
2018-12-15T22:16:42.666Z,-2.70
2018-12-15T22:19:10.221Z,-2.60
2018-12-15T22:21:37.878Z,-2.60
2018-12-15T22:24:05.790Z,-2.60
2018-12-15T22:26:33.346Z,-2.60
2018-12-15T22:29:00.896Z,-2.60
2018-12-15T22:31:28.820Z,-2.60
2018-12-15T22:33:56.355Z,-2.70
2018-12-15T22:36:24.068Z,-2.70
2018-12-15T22:38:51.639Z,-2.70
2018-12-15T22:41:19.442Z,-2.60
2018-12-15T22:43:46.986Z,-2.70
2018-12-15T22:46:15.866Z,-2.70
2018-12-15T22:48:43.407Z,-2.60
2018-12-15T22:51:10.953Z,-2.60
2018-12-15T22:53:38.531Z,-2.60
2018-12-15T22:56:06.071Z,-2.70
2018-12-15T22:58:33.611Z,-2.60
2018-12-15T23:01:06.940Z,-2.60
2018-12-15T23:03:34.479Z,-2.60
2018-12-15T23:06:02.866Z,-2.60
2018-12-15T23:08:30.466Z,-2.60
2018-12-15T23:10:58.073Z,-2.70
2018-12-15T23:13:25.638Z,-2.70
2018-12-15T23:15:53.385Z,-2.60
2018-12-15T23:18:20.925Z,-2.60
2018-12-15T23:20:48.708Z,-2.70
2018-12-15T23:23:16.283Z,-2.60
2018-12-15T23:25:44.064Z,-2.60
2018-12-15T23:28:11.621Z,-2.60
2018-12-15T23:30:39.219Z,-2.60
2018-12-15T23:33:07.251Z,-2.70
2018-12-15T23:35:35.668Z,-2.50
2018-12-15T23:38:03.509Z,-2.60
2018-12-15T23:40:31.434Z,-2.50
2018-12-15T23:42:59.323Z,-2.60
2018-12-15T23:45:27.300Z,-2.60
2018-12-15T23:47:54.947Z,-2.70
2018-12-15T23:50:22.624Z,-2.60
2018-12-15T23:52:50.215Z,-2.60
2018-12-15T23:55:17.752Z,-2.60
2018-12-15T23:57:45.695Z,-2.60
